Bergama, Turkey
Current Conditions -  °F | °C
As of 3:50 PM on Saturday 25 Oct 2014 (Local Time) from LTFD Reporting Station
Rain Showers Rain Showers  
Wind Chill: 61°   Ceiling: 8000
Heat Index: 61°   Visibility: 5mi
Dew Point: 55°   Wind: 1mph
Humidity: 82%   Direction: NA
Pressure: 29.85"   Gusts: NA
Location:  39.13°N, 27.17°E
Report Text: LTFD 251250Z VRB01KT 8000 -SHRA SCT030 BKN080 16/13 Q1011
Loading
Personal Weather Stations






























Interactive Weather Map
Tropical Storm Tracking
New forecast layout! Learn more

10-Day Weather Forecast

Advertisements
Track Severe Weather on mobile